createdAt,value
2018-05-14T00:01:04.810Z,13.93
2018-05-14T00:03:31.013Z,6.53
2018-05-14T00:05:57.947Z,8.70
2018-05-14T00:08:24.910Z,7.03
2018-05-14T00:10:51.103Z,14.77
2018-05-14T00:13:18.803Z,7.20
2018-05-14T00:15:44.994Z,7.83
2018-05-14T00:18:11.215Z,8.70
2018-05-14T00:20:38.188Z,8.07
2018-05-14T00:23:05.991Z,8.63
2018-05-14T00:25:32.195Z,8.00
2018-05-14T00:27:59.196Z,11.67
2018-05-14T00:30:26.199Z,7.63
2018-05-14T00:32:53.188Z,12.63
2018-05-14T00:35:19.394Z,7.40
2018-05-14T00:37:45.623Z,6.80
2018-05-14T00:40:11.818Z,18.43
2018-05-14T00:42:38.787Z,10.27
2018-05-14T00:45:04.978Z,11.80
2018-05-14T00:47:31.212Z,8.67
2018-05-14T00:49:58.146Z,12.13
2018-05-14T00:52:25.111Z,8.60
2018-05-14T00:55:04.283Z,8.00
2018-05-14T00:57:30.506Z,11.10
2018-05-14T00:59:57.652Z,9.77
2018-05-14T01:02:23.854Z,9.73
2018-05-14T01:04:51.794Z,9.60
2018-05-14T01:07:18.522Z,12.97
2018-05-14T01:09:46.150Z,10.63
2018-05-14T01:12:12.925Z,8.67
2018-05-14T01:14:39.268Z,12.00
2018-05-14T01:17:05.491Z,8.00
2018-05-14T01:19:31.720Z,12.70
2018-05-14T01:21:57.927Z,10.13
2018-05-14T01:24:24.691Z,12.63
2018-05-14T01:26:50.896Z,8.47
2018-05-14T01:29:18.021Z,10.40
2018-05-14T01:31:44.227Z,12.57
2018-05-14T01:34:11.187Z,12.10
2018-05-14T01:36:37.387Z,13.67
2018-05-14T01:39:04.374Z,11.70
2018-05-14T01:41:30.572Z,9.97
2018-05-14T01:43:57.531Z,13.90
2018-05-14T01:46:25.517Z,11.40
2018-05-14T01:48:53.260Z,7.33
2018-05-14T01:51:20.197Z,9.97
2018-05-14T01:53:46.416Z,12.27
2018-05-14T01:56:12.729Z,10.43
2018-05-14T01:58:38.947Z,12.00
2018-05-14T02:01:05.150Z,15.43
2018-05-14T02:03:31.367Z,11.73
2018-05-14T02:05:57.559Z,11.57
2018-05-14T02:08:23.847Z,9.70
2018-05-14T02:10:50.046Z,10.90
2018-05-14T02:13:16.318Z,11.23
2018-05-14T02:15:42.519Z,10.13
2018-05-14T02:18:08.734Z,13.47
2018-05-14T02:20:35.675Z,11.23
2018-05-14T02:23:02.630Z,18.63
2018-05-14T02:25:29.571Z,13.13
2018-05-14T02:27:56.538Z,10.83
2018-05-14T02:30:23.574Z,10.80
2018-05-14T02:32:49.795Z,12.10
2018-05-14T02:35:16.736Z,20.73
2018-05-14T02:37:43.700Z,9.67
2018-05-14T02:40:09.892Z,12.50
2018-05-14T02:42:37.595Z,11.40
2018-05-14T02:45:03.835Z,13.60
2018-05-14T02:47:30.059Z,13.20
2018-05-14T02:50:03.310Z,10.20
2018-05-14T02:52:29.527Z,10.60
2018-05-14T02:54:55.735Z,12.90
2018-05-14T02:57:21.963Z,10.13
2018-05-14T02:59:48.187Z,14.13
2018-05-14T03:02:14.392Z,19.70
2018-05-14T03:04:40.620Z,11.07
2018-05-14T03:07:06.822Z,14.77
2018-05-14T03:09:33.786Z,13.63
2018-05-14T03:11:59.982Z,15.70
2018-05-14T03:14:26.217Z,15.80
2018-05-14T03:16:53.166Z,18.73
2018-05-14T03:19:20.135Z,14.87
2018-05-14T03:21:47.070Z,18.40
2018-05-14T03:24:14.059Z,14.10
2018-05-14T03:26:40.278Z,17.60
2018-05-14T03:29:06.500Z,13.03
2018-05-14T03:31:32.719Z,15.27
2018-05-14T03:33:58.918Z,16.97
2018-05-14T03:36:25.143Z,13.97
2018-05-14T03:38:51.349Z,17.60
2018-05-14T03:41:17.611Z,14.80
2018-05-14T03:43:44.559Z,12.70
2018-05-14T03:46:11.511Z,16.33
2018-05-14T03:48:38.442Z,16.90
2018-05-14T03:51:04.666Z,10.83
2018-05-14T03:53:30.869Z,13.93
2018-05-14T03:55:57.092Z,12.63
2018-05-14T03:58:35.701Z,12.30
2018-05-14T04:01:14.823Z,16.17
2018-05-14T04:03:53.423Z,15.70
2018-05-14T04:06:32.306Z,12.37
2018-05-14T04:08:58.504Z,17.70
2018-05-14T04:11:24.703Z,10.63
2018-05-14T04:13:51.668Z,13.33
2018-05-14T04:16:18.686Z,11.07
2018-05-14T04:18:45.642Z,14.80
2018-05-14T04:21:12.671Z,16.33
2018-05-14T04:23:38.831Z,19.73
2018-05-14T04:26:05.027Z,12.83
2018-05-14T04:28:32.731Z,12.70
2018-05-14T04:30:58.947Z,9.47
2018-05-14T04:33:25.241Z,12.37
2018-05-14T04:35:51.394Z,15.43
2018-05-14T04:38:18.357Z,14.33
2018-05-14T04:40:44.557Z,13.10
2018-05-14T04:43:10.774Z,11.40
2018-05-14T04:45:36.973Z,10.03
2018-05-14T04:48:10.319Z,11.33
2018-05-14T04:50:37.255Z,11.20
2018-05-14T04:53:04.375Z,11.80
2018-05-14T04:55:30.584Z,15.30
2018-05-14T04:57:56.786Z,12.47
2018-05-14T05:00:23.024Z,12.30
2018-05-14T05:02:49.225Z,12.03
2018-05-14T05:05:19.039Z,10.00
2018-05-14T05:07:45.985Z,18.07
2018-05-14T05:10:12.951Z,17.63
2018-05-14T05:12:39.148Z,13.20
2018-05-14T05:15:06.124Z,10.73
2018-05-14T05:17:32.325Z,11.97
2018-05-14T05:19:59.355Z,11.30
2018-05-14T05:22:25.566Z,9.57
2018-05-14T05:24:51.799Z,14.23
2018-05-14T05:27:17.995Z,11.93
2018-05-14T05:29:44.219Z,14.23
2018-05-14T05:32:10.443Z,16.60
2018-05-14T05:34:36.729Z,27.10
2018-05-14T05:37:02.965Z,14.00
2018-05-14T05:39:29.468Z,17.40
2018-05-14T05:41:55.683Z,15.73
2018-05-14T05:44:21.874Z,17.40
2018-05-14T05:46:48.842Z,15.20
2018-05-14T05:49:15.775Z,12.83
2018-05-14T05:51:42.770Z,18.80
2018-05-14T05:54:08.971Z,14.87
2018-05-14T05:56:35.188Z,10.73
2018-05-14T05:59:02.123Z,16.00
2018-05-14T06:01:29.110Z,16.60
2018-05-14T06:03:55.375Z,13.03
2018-05-14T06:06:21.595Z,14.20
2018-05-14T06:08:47.798Z,17.10
2018-05-14T06:11:14.023Z,14.17
2018-05-14T06:13:40.211Z,12.03
2018-05-14T06:16:07.171Z,18.27
2018-05-14T06:18:34.115Z,15.83
2018-05-14T06:21:01.075Z,16.30
2018-05-14T06:23:27.271Z,14.80
2018-05-14T06:25:53.490Z,13.60
2018-05-14T06:28:19.682Z,12.70
2018-05-14T06:30:48.064Z,9.43
2018-05-14T06:33:16.698Z,12.97
2018-05-14T06:35:43.726Z,13.23
2018-05-14T06:38:10.622Z,11.87
2018-05-14T06:40:37.809Z,13.03
2018-05-14T06:43:04.027Z,14.87
2018-05-14T06:45:30.796Z,21.30
2018-05-14T06:47:57.255Z,14.60
2018-05-14T06:50:24.249Z,23.80
2018-05-14T06:52:50.487Z,19.10
2018-05-14T06:55:16.687Z,21.13
2018-05-14T06:57:43.055Z,17.83
2018-05-14T07:00:09.252Z,12.17
2018-05-14T07:02:35.451Z,16.63
2018-05-14T07:05:02.413Z,22.70
2018-05-14T07:07:28.675Z,13.53
2018-05-14T07:09:54.893Z,17.50
2018-05-14T07:12:21.096Z,16.53
2018-05-14T07:14:47.311Z,16.10
2018-05-14T07:17:14.451Z,10.50
2018-05-14T07:19:40.663Z,11.57
2018-05-14T07:22:06.863Z,16.57
2018-05-14T07:24:33.111Z,13.33
2018-05-14T07:26:59.311Z,18.10
2018-05-14T07:29:25.572Z,15.63
2018-05-14T07:31:51.782Z,12.27
2018-05-14T07:34:17.998Z,15.37
2018-05-14T07:36:44.200Z,10.47
2018-05-14T07:39:11.159Z,10.00
2018-05-14T07:41:37.355Z,8.63
2018-05-14T07:44:04.321Z,16.10
2018-05-14T07:46:30.577Z,12.97
2018-05-14T07:48:57.017Z,13.03
2018-05-14T07:51:23.231Z,11.00
2018-05-14T07:53:49.427Z,13.07
2018-05-14T07:56:16.782Z,9.50
2018-05-14T07:58:43.715Z,14.23
2018-05-14T08:01:09.939Z,12.47
2018-05-14T08:03:36.894Z,9.20
2018-05-14T08:06:04.571Z,13.10
2018-05-14T08:08:31.534Z,11.50
2018-05-14T08:10:57.734Z,13.23
2018-05-14T08:13:23.928Z,8.80
2018-05-14T08:15:50.156Z,12.83
2018-05-14T08:18:16.363Z,11.50
2018-05-14T08:20:43.587Z,10.60
2018-05-14T08:23:10.526Z,15.03
2018-05-14T08:25:38.259Z,11.63
2018-05-14T08:28:04.451Z,9.40
2018-05-14T08:30:30.695Z,14.37
2018-05-14T08:32:56.924Z,14.07
2018-05-14T08:35:23.183Z,17.77
2018-05-14T08:37:49.375Z,9.87
2018-05-14T08:40:15.603Z,9.87
2018-05-14T08:42:41.799Z,19.50
2018-05-14T08:45:08.764Z,10.93
2018-05-14T08:47:35.218Z,13.30
2018-05-14T08:50:01.439Z,12.67
2018-05-14T08:52:27.639Z,12.90
2018-05-14T08:54:54.599Z,9.60
2018-05-14T08:57:20.794Z,8.60
2018-05-14T08:59:47.014Z,7.80
2018-05-14T09:02:13.206Z,9.87
2018-05-14T09:04:39.435Z,9.00
2018-05-14T09:07:05.630Z,9.37
2018-05-14T09:09:31.862Z,16.30
2018-05-14T09:11:58.064Z,8.50
2018-05-14T09:14:24.288Z,8.20
2018-05-14T09:16:50.487Z,10.30
2018-05-14T09:19:16.746Z,11.43
2018-05-14T09:21:42.938Z,11.73
2018-05-14T09:24:09.167Z,7.70
2018-05-14T09:26:35.430Z,8.00
2018-05-14T09:29:01.661Z,8.70
2018-05-14T09:31:27.883Z,9.13
2018-05-14T09:33:54.247Z,8.53
2018-05-14T09:36:21.179Z,10.10
2018-05-14T09:38:47.398Z,12.10
2018-05-14T09:41:14.339Z,8.40
2018-05-14T09:43:40.578Z,10.13
2018-05-14T09:46:06.789Z,12.97
2018-05-14T09:48:33.015Z,7.60
2018-05-14T09:50:59.215Z,7.70
2018-05-14T09:53:25.434Z,7.13
2018-05-14T09:55:51.640Z,11.10
2018-05-14T09:58:18.632Z,15.03
2018-05-14T10:00:44.836Z,8.63
2018-05-14T10:03:11.119Z,8.03
2018-05-14T10:05:37.428Z,7.07
2018-05-14T10:08:03.655Z,8.70
2018-05-14T10:10:29.887Z,11.43
2018-05-14T10:12:57.807Z,9.23
2018-05-14T10:15:23.964Z,10.13
2018-05-14T10:17:50.190Z,9.33
2018-05-14T10:20:16.408Z,6.17
2018-05-14T10:22:42.631Z,6.43
2018-05-14T10:25:08.838Z,6.60
2018-05-14T10:27:35.799Z,8.50
2018-05-14T10:30:02.052Z,11.57
2018-05-14T10:32:28.751Z,9.30
2018-05-14T10:34:55.727Z,10.90
2018-05-14T10:37:21.936Z,5.40
2018-05-14T10:39:48.899Z,14.00
2018-05-14T10:42:15.091Z,9.17
2018-05-14T10:44:41.315Z,9.60
2018-05-14T10:47:08.259Z,9.10
2018-05-14T10:49:34.482Z,13.60
2018-05-14T10:52:00.696Z,23.20
2018-05-14T10:54:26.928Z,8.80
2018-05-14T10:56:53.120Z,7.50
2018-05-14T10:59:19.566Z,8.03
2018-05-14T11:01:45.790Z,7.43
2018-05-14T11:04:12.079Z,7.60
2018-05-14T11:06:39.020Z,8.60
2018-05-14T11:09:05.246Z,7.70
2018-05-14T11:11:31.451Z,4.97
2018-05-14T11:13:57.674Z,6.27
2018-05-14T11:16:23.875Z,10.10
2018-05-14T11:18:50.181Z,6.90
2018-05-14T11:21:16.331Z,10.23
2018-05-14T11:23:42.542Z,11.10
2018-05-14T11:26:09.483Z,9.87
2018-05-14T11:28:36.455Z,14.33
2018-05-14T11:31:02.682Z,8.37
2018-05-14T11:33:28.900Z,10.13
2018-05-14T11:35:55.091Z,9.03
2018-05-14T11:38:21.310Z,5.80
2018-05-14T11:40:47.742Z,7.13
2018-05-14T11:43:14.738Z,7.57
2018-05-14T11:45:41.195Z,9.90
2018-05-14T11:48:07.483Z,11.03
2018-05-14T11:50:34.423Z,10.63
2018-05-14T11:53:01.384Z,8.63
2018-05-14T11:55:27.608Z,8.70
2018-05-14T11:57:54.575Z,7.33
2018-05-14T12:00:20.766Z,5.20
2018-05-14T12:02:46.989Z,8.43
2018-05-14T12:05:13.195Z,7.17
2018-05-14T12:07:39.418Z,5.03
2018-05-14T12:10:05.625Z,6.00
2018-05-14T12:12:31.922Z,4.47
2018-05-14T12:14:59.559Z,4.97
2018-05-14T12:17:25.783Z,7.17
2018-05-14T12:19:52.721Z,11.40
2018-05-14T12:22:18.942Z,10.83
2018-05-14T12:24:45.163Z,5.27
2018-05-14T12:27:11.387Z,7.97
2018-05-14T12:29:37.585Z,9.53
2018-05-14T12:32:04.669Z,10.53
2018-05-14T12:34:30.803Z,9.40
2018-05-14T12:36:57.063Z,8.90
2018-05-14T12:39:23.259Z,11.37
2018-05-14T12:41:49.454Z,10.43
2018-05-14T12:44:15.679Z,15.53
2018-05-14T12:46:41.874Z,13.57
2018-05-14T12:49:08.100Z,10.20
2018-05-14T12:51:34.303Z,7.33
2018-05-14T12:54:00.527Z,6.73
2018-05-14T12:56:26.756Z,11.17
2018-05-14T12:58:52.951Z,10.50
2018-05-14T13:01:19.334Z,8.80
2018-05-14T13:03:45.533Z,18.60
2018-05-14T13:06:12.056Z,7.30
2018-05-14T13:08:38.315Z,12.80
2018-05-14T13:11:04.591Z,9.20
2018-05-14T13:13:31.595Z,8.10
2018-05-14T13:15:57.811Z,7.17
2018-05-14T13:18:24.090Z,17.83
2018-05-14T13:20:51.041Z,10.17
2018-05-14T13:23:18.040Z,8.93
2018-05-14T13:25:44.258Z,7.20
2018-05-14T13:28:10.486Z,7.30
2018-05-14T13:30:36.711Z,11.20
2018-05-14T13:33:02.951Z,6.10
2018-05-14T13:35:29.174Z,10.13
2018-05-14T13:37:55.490Z,16.30
2018-05-14T13:40:21.619Z,3.73
2018-05-14T13:42:47.895Z,7.30
2018-05-14T13:45:14.067Z,3.40
2018-05-14T13:47:40.298Z,3.80
2018-05-14T13:50:06.539Z,6.40
2018-05-14T13:52:32.755Z,3.50
2018-05-14T13:54:58.965Z,6.57
2018-05-14T13:57:26.145Z,3.83
2018-05-14T13:59:52.749Z,4.07
2018-05-14T14:02:19.694Z,5.40
2018-05-14T14:04:45.914Z,14.30
2018-05-14T14:07:12.115Z,6.50
2018-05-14T14:09:38.367Z,5.73
2018-05-14T14:12:04.569Z,6.47
2018-05-14T14:14:30.790Z,5.20
2018-05-14T14:16:57.004Z,4.10
2018-05-14T14:19:23.243Z,10.30
2018-05-14T14:21:49.443Z,9.13
2018-05-14T14:24:16.426Z,5.37
2018-05-14T14:26:42.635Z,10.07
2018-05-14T14:29:08.855Z,4.43
2018-05-14T14:31:35.082Z,6.53
2018-05-14T14:34:01.303Z,5.63
2018-05-14T14:36:28.368Z,5.20
2018-05-14T14:38:54.543Z,8.80
2018-05-14T14:41:20.743Z,6.53
2018-05-14T14:43:46.966Z,9.53
2018-05-14T14:46:13.155Z,6.63
2018-05-14T14:48:40.121Z,5.27
2018-05-14T14:51:06.338Z,5.33
2018-05-14T14:53:33.356Z,7.77
2018-05-14T14:55:59.528Z,6.00
2018-05-14T14:58:25.819Z,4.40
2018-05-14T15:00:51.974Z,7.67
2018-05-14T15:03:18.929Z,5.40
2018-05-14T15:05:45.175Z,5.57
2018-05-14T15:08:11.367Z,9.63
2018-05-14T15:10:38.327Z,4.20
2018-05-14T15:13:05.262Z,11.17
2018-05-14T15:15:32.223Z,8.13
2018-05-14T15:17:58.430Z,7.33
2018-05-14T15:20:24.652Z,6.90
2018-05-14T15:22:52.512Z,7.30
2018-05-14T15:25:19.812Z,12.83
2018-05-14T15:27:46.003Z,4.40
2018-05-14T15:30:15.615Z,5.90
2018-05-14T15:32:41.835Z,8.20
2018-05-14T15:35:08.060Z,10.17
2018-05-14T15:37:34.256Z,4.63
2018-05-14T15:40:00.966Z,8.63
2018-05-14T15:42:27.168Z,7.20
2018-05-14T15:44:53.386Z,8.80
2018-05-14T15:47:19.575Z,7.87
2018-05-14T15:49:45.790Z,9.30
2018-05-14T15:52:12.056Z,10.30
2018-05-14T15:54:38.283Z,8.50
2018-05-14T15:57:04.476Z,7.33
2018-05-14T15:59:30.699Z,6.63
2018-05-14T16:01:56.945Z,9.40
2018-05-14T16:04:23.180Z,4.53
2018-05-14T16:06:49.444Z,5.50
2018-05-14T16:09:15.639Z,8.13
2018-05-14T16:11:41.859Z,8.97
2018-05-14T16:14:08.051Z,9.40
2018-05-14T16:16:35.012Z,9.90
2018-05-14T16:19:01.211Z,13.83
2018-05-14T16:21:27.426Z,7.00
2018-05-14T16:23:53.618Z,7.20
2018-05-14T16:26:19.921Z,6.40
2018-05-14T16:28:46.067Z,16.10
2018-05-14T16:31:12.318Z,13.20
2018-05-14T16:33:38.510Z,15.73
2018-05-14T16:36:05.476Z,30.07
2018-05-14T16:38:31.667Z,16.83
2018-05-14T16:40:58.635Z,17.93
2018-05-14T16:43:25.573Z,13.53
2018-05-14T16:45:52.458Z,6.70
2018-05-14T16:48:18.685Z,14.40
2018-05-14T16:50:45.857Z,7.53
2018-05-14T16:53:12.074Z,9.83
2018-05-14T16:55:38.270Z,32.87
2018-05-14T16:58:04.494Z,4.83
2018-05-14T17:00:30.695Z,14.13
2018-05-14T17:02:57.004Z,7.70
2018-05-14T17:05:23.199Z,14.37
2018-05-14T17:07:49.415Z,9.40
2018-05-14T17:10:15.614Z,6.50
2018-05-14T17:12:41.830Z,8.27
2018-05-14T17:15:08.026Z,7.00
2018-05-14T17:17:34.247Z,8.40
2018-05-14T17:20:00.446Z,13.43
2018-05-14T17:22:27.462Z,6.07
2018-05-14T17:24:53.664Z,9.93
2018-05-14T17:27:19.895Z,7.70
2018-05-14T17:29:46.155Z,9.37
2018-05-14T17:32:13.770Z,6.50
2018-05-14T17:34:39.971Z,9.43
2018-05-14T17:37:06.906Z,10.60
2018-05-14T17:39:33.883Z,10.17
2018-05-14T17:42:00.079Z,7.37
2018-05-14T17:44:34.087Z,8.33
2018-05-14T17:47:01.100Z,6.63
2018-05-14T17:49:27.270Z,9.20
2018-05-14T17:51:54.211Z,18.73
2018-05-14T17:54:21.184Z,8.77
2018-05-14T17:56:47.380Z,10.07
2018-05-14T17:59:14.349Z,12.40
2018-05-14T18:01:41.296Z,14.37
2018-05-14T18:04:07.614Z,16.63
2018-05-14T18:06:34.555Z,24.57
2018-05-14T18:09:01.520Z,26.07
2018-05-14T18:11:28.800Z,58.87
2018-05-14T18:13:55.143Z,12.00
2018-05-14T18:16:21.347Z,9.00
2018-05-14T18:18:47.572Z,8.07
2018-05-14T18:21:14.608Z,17.03
2018-05-14T18:23:45.899Z,9.90
2018-05-14T18:26:16.172Z,11.83
2018-05-14T18:28:43.199Z,7.30
2018-05-14T18:31:15.590Z,8.23
2018-05-14T18:33:42.571Z,9.97
2018-05-14T18:36:08.766Z,10.60
2018-05-14T18:38:35.723Z,15.93
2018-05-14T18:41:01.919Z,6.80
2018-05-14T18:43:28.150Z,8.73
2018-05-14T18:45:54.410Z,9.77
2018-05-14T18:48:21.371Z,9.67
2018-05-14T18:50:47.570Z,11.77
2018-05-14T18:53:14.551Z,11.40
2018-05-14T18:55:40.742Z,13.30
2018-05-14T18:58:07.683Z,9.87
2018-05-14T19:00:34.647Z,10.67
2018-05-14T19:03:01.584Z,10.80
2018-05-14T19:05:28.557Z,7.40
2018-05-14T19:07:54.759Z,7.33
2018-05-14T19:10:27.927Z,7.90
2018-05-14T19:12:54.128Z,6.10
2018-05-14T19:15:26.390Z,6.63
2018-05-14T19:17:58.702Z,11.17
2018-05-14T19:20:25.682Z,7.80
2018-05-14T19:22:57.995Z,9.43
2018-05-14T19:25:24.225Z,6.97
2018-05-14T19:27:56.500Z,10.20
2018-05-14T19:30:22.752Z,5.80
2018-05-14T19:32:48.976Z,8.50
2018-05-14T19:35:22.679Z,10.57
2018-05-14T19:37:49.622Z,9.80
2018-05-14T19:40:22.117Z,10.60
2018-05-14T19:42:49.059Z,9.27
2018-05-14T19:45:16.014Z,8.00
2018-05-14T19:47:42.960Z,7.23
2018-05-14T19:50:10.023Z,10.00
2018-05-14T19:52:36.167Z,11.10
2018-05-14T19:55:02.398Z,16.13
2018-05-14T19:57:28.598Z,15.10
2018-05-14T19:59:55.567Z,12.77
2018-05-14T20:02:22.448Z,18.37
2018-05-14T20:04:49.462Z,13.83
2018-05-14T20:07:15.663Z,22.90
2018-05-14T20:09:42.622Z,10.23
2018-05-14T20:12:08.818Z,19.33
2018-05-14T20:14:35.792Z,9.00
2018-05-14T20:17:04.317Z,9.13
2018-05-14T20:19:30.840Z,10.27
2018-05-14T20:21:57.337Z,8.83
2018-05-14T20:24:23.789Z,50.03
2018-05-14T20:26:51.333Z,14.43
2018-05-14T20:29:18.270Z,11.63
2018-05-14T20:31:45.264Z,10.63
2018-05-14T20:34:11.464Z,13.63
2018-05-14T20:36:37.678Z,9.17
2018-05-14T20:39:04.657Z,28.23
2018-05-14T20:41:30.883Z,10.47
2018-05-14T20:43:59.202Z,14.20
2018-05-14T20:46:25.423Z,13.57
2018-05-14T20:48:51.615Z,79.40
2018-05-14T20:51:17.842Z,14.07
2018-05-14T20:53:44.039Z,27.67
2018-05-14T20:56:11.007Z,12.30
2018-05-14T20:58:37.207Z,12.57
2018-05-14T21:01:04.908Z,12.67
2018-05-14T21:03:31.112Z,10.90
2018-05-14T21:05:58.075Z,21.27
2018-05-14T21:08:24.270Z,16.10
2018-05-14T21:10:50.888Z,17.83
2018-05-14T21:13:17.867Z,49.57
2018-05-14T21:15:44.806Z,34.77
2018-05-14T21:18:11.759Z,8.90
2018-05-14T21:20:38.698Z,9.10
2018-05-14T21:23:04.917Z,10.50
2018-05-14T21:25:31.110Z,17.63
2018-05-14T21:27:57.330Z,15.47
2018-05-14T21:30:23.563Z,19.03
2018-05-14T21:32:49.787Z,7.60
2018-05-14T21:35:16.041Z,12.87
2018-05-14T21:37:42.257Z,9.87
2018-05-14T21:40:08.451Z,16.77
2018-05-14T21:42:34.679Z,9.50
2018-05-14T21:45:01.654Z,12.63
2018-05-14T21:47:27.867Z,10.97
2018-05-14T21:49:54.058Z,15.77
2018-05-14T21:52:21.023Z,132.83
2018-05-14T21:54:47.959Z,41.23
2018-05-14T21:57:14.987Z,9.80
2018-05-14T21:59:41.208Z,77.37
2018-05-14T22:02:08.263Z,14.60
2018-05-14T22:04:34.463Z,14.87
2018-05-14T22:07:00.654Z,17.63
2018-05-14T22:09:27.616Z,29.30
2018-05-14T22:11:53.807Z,12.43
2018-05-14T22:14:20.027Z,10.80
2018-05-14T22:16:46.307Z,44.07
2018-05-14T22:19:12.737Z,9.43
2018-05-14T22:21:38.943Z,10.00
2018-05-14T22:24:05.911Z,9.63
2018-05-14T22:26:32.174Z,43.00
2018-05-14T22:28:58.359Z,10.07
2018-05-14T22:31:24.587Z,13.03
2018-05-14T22:33:50.849Z,44.13
2018-05-14T22:36:17.047Z,22.73
2018-05-14T22:38:43.266Z,19.70
2018-05-14T22:41:10.206Z,28.53
2018-05-14T22:43:37.174Z,46.83
2018-05-14T22:46:03.375Z,52.60
2018-05-14T22:48:30.347Z,82.97
2018-05-14T22:50:56.550Z,26.03
2018-05-14T22:53:23.511Z,99.10
2018-05-14T22:55:50.447Z,57.53
2018-05-14T22:58:17.413Z,21.97
2018-05-14T23:00:43.614Z,19.37
2018-05-14T23:03:10.583Z,20.07
2018-05-14T23:05:36.775Z,41.90
2018-05-14T23:08:02.999Z,16.00
2018-05-14T23:10:29.194Z,13.43
2018-05-14T23:12:55.430Z,10.57
2018-05-14T23:15:21.627Z,13.80
2018-05-14T23:17:47.851Z,37.77
2018-05-14T23:20:14.787Z,105.40
2018-05-14T23:22:41.754Z,119.37
2018-05-14T23:25:07.967Z,124.93
2018-05-14T23:27:34.946Z,118.00
2018-05-14T23:30:01.138Z,97.43
2018-05-14T23:32:28.264Z,60.63
2018-05-14T23:34:54.791Z,120.07
2018-05-14T23:37:21.163Z,81.83
2018-05-14T23:39:48.200Z,83.33
2018-05-14T23:42:15.144Z,41.00
2018-05-14T23:44:42.103Z,122.27
2018-05-14T23:47:09.036Z,67.43
2018-05-14T23:49:36.073Z,51.17
2018-05-14T23:52:02.267Z,65.03
2018-05-14T23:54:28.515Z,54.77
2018-05-14T23:56:54.715Z,119.27
2018-05-14T23:59:20.946Z,75.97
